sensor_id;sensor_type;location;lat;lon;timestamp;temperature;humidity
5802;DHT22;2927;49.366;8.530;2022-11-15T00:02:22;10.20;99.90
5802;DHT22;2927;49.366;8.530;2022-11-15T00:04:47;10.20;99.90
5802;DHT22;2927;49.366;8.530;2022-11-15T00:07:13;10.30;99.90
5802;DHT22;2927;49.366;8.530;2022-11-15T00:09:38;10.30;99.90
5802;DHT22;2927;49.366;8.530;2022-11-15T00:12:04;10.20;99.90
5802;DHT22;2927;49.366;8.530;2022-11-15T00:14:29;10.30;99.90
5802;DHT22;2927;49.366;8.530;2022-11-15T00:16:55;10.30;99.90
5802;DHT22;2927;49.366;8.530;2022-11-15T00:19:20;10.20;99.90
5802;DHT22;2927;49.366;8.530;2022-11-15T00:21:46;10.10;99.90
5802;DHT22;2927;49.366;8.530;2022-11-15T00:24:11;10.10;99.90
5802;DHT22;2927;49.366;8.530;2022-11-15T00:26:37;10.10;99.90
5802;DHT22;2927;49.366;8.530;2022-11-15T00:29:02;10.20;99.90
5802;DHT22;2927;49.366;8.530;2022-11-15T00:31:28;10.30;99.90
5802;DHT22;2927;49.366;8.530;2022-11-15T00:33:53;10.30;99.90
5802;DHT22;2927;49.366;8.530;2022-11-15T00:36:19;10.50;99.90
5802;DHT22;2927;49.366;8.530;2022-11-15T00:38:44;10.50;99.90
5802;DHT22;2927;49.366;8.530;2022-11-15T00:41:10;10.40;99.90
5802;DHT22;2927;49.366;8.530;2022-11-15T00:43:36;10.40;99.90
5802;DHT22;2927;49.366;8.530;2022-11-15T00:46:01;10.50;99.90
5802;DHT22;2927;49.366;8.530;2022-11-15T00:48:28;10.50;99.90
5802;DHT22;2927;49.366;8.530;2022-11-15T00:50:53;10.50;99.90
5802;DHT22;2927;49.366;8.530;2022-11-15T00:53:19;10.50;99.90
5802;DHT22;2927;49.366;8.530;2022-11-15T00:55:45;10.50;99.90
5802;DHT22;2927;49.366;8.530;2022-11-15T00:58:11;10.50;99.90
5802;DHT22;2927;49.366;8.530;2022-11-15T01:00:36;10.50;99.90
5802;DHT22;2927;49.366;8.530;2022-11-15T01:03:02;10.40;99.90
5802;DHT22;2927;49.366;8.530;2022-11-15T01:05:28;10.20;99.90
5802;DHT22;2927;49.366;8.530;2022-11-15T01:07:54;10.30;99.90
5802;DHT22;2927;49.366;8.530;2022-11-15T01:10:21;10.40;99.90
5802;DHT22;2927;49.366;8.530;2022-11-15T01:12:47;10.40;99.90
5802;DHT22;2927;49.366;8.530;2022-11-15T01:15:13;10.40;99.90
5802;DHT22;2927;49.366;8.530;2022-11-15T01:17:38;10.40;99.90
5802;DHT22;2927;49.366;8.530;2022-11-15T01:20:04;10.40;99.90
5802;DHT22;2927;49.366;8.530;2022-11-15T01:22:30;10.40;99.90
5802;DHT22;2927;49.366;8.530;2022-11-15T01:24:55;10.40;99.90
5802;DHT22;2927;49.366;8.530;2022-11-15T01:27:21;10.30;99.90
5802;DHT22;2927;49.366;8.530;2022-11-15T01:29:47;10.30;99.90
5802;DHT22;2927;49.366;8.530;2022-11-15T01:32:12;10.20;99.90
5802;DHT22;2927;49.366;8.530;2022-11-15T01:34:38;10.10;99.90
5802;DHT22;2927;49.366;8.530;2022-11-15T01:37:04;10.00;99.90
5802;DHT22;2927;49.366;8.530;2022-11-15T01:39:29;10.00;99.90
5802;DHT22;2927;49.366;8.530;2022-11-15T01:41:55;10.00;99.90
5802;DHT22;2927;49.366;8.530;2022-11-15T01:44:44;9.90;99.90
5802;DHT22;2927;49.366;8.530;2022-11-15T01:47:20;9.90;99.90
5802;DHT22;2927;49.366;8.530;2022-11-15T01:49:57;9.90;99.90
5802;DHT22;2927;49.366;8.530;2022-11-15T01:52:25;9.90;99.90
5802;DHT22;2927;49.366;8.530;2022-11-15T01:57:28;10.00;99.90
5802;DHT22;2927;49.366;8.530;2022-11-15T01:59:54;10.00;99.90
5802;DHT22;2927;49.366;8.530;2022-11-15T02:02:20;10.00;99.90
5802;DHT22;2927;49.366;8.530;2022-11-15T02:04:47;10.00;99.90
5802;DHT22;2927;49.366;8.530;2022-11-15T02:07:15;9.90;99.90
5802;DHT22;2927;49.366;8.530;2022-11-15T02:09:42;9.80;99.90
5802;DHT22;2927;49.366;8.530;2022-11-15T02:12:09;9.80;99.90
5802;DHT22;2927;49.366;8.530;2022-11-15T02:14:38;9.80;99.90
5802;DHT22;2927;49.366;8.530;2022-11-15T02:17:32;9.80;99.90
5802;DHT22;2927;49.366;8.530;2022-11-15T02:29:08;9.70;99.90
5802;DHT22;2927;49.366;8.530;2022-11-15T02:31:56;9.90;99.90
5802;DHT22;2927;49.366;8.530;2022-11-15T02:37:16;10.10;99.90
5802;DHT22;2927;49.366;8.530;2022-11-15T02:40:09;10.10;99.90
5802;DHT22;2927;49.366;8.530;2022-11-15T02:42:43;10.10;99.90
5802;DHT22;2927;49.366;8.530;2022-11-15T02:45:33;10.00;99.90
5802;DHT22;2927;49.366;8.530;2022-11-15T02:48:01;10.00;99.90
5802;DHT22;2927;49.366;8.530;2022-11-15T02:50:29;9.90;99.90
5802;DHT22;2927;49.366;8.530;2022-11-15T02:52:56;9.90;99.90
5802;DHT22;2927;49.366;8.530;2022-11-15T02:55:51;9.90;99.90
5802;DHT22;2927;49.366;8.530;2022-11-15T03:09:46;9.60;99.90
5802;DHT22;2927;49.366;8.530;2022-11-15T03:12:25;9.50;99.90
5802;DHT22;2927;49.366;8.530;2022-11-15T03:15:20;9.50;99.90
5802;DHT22;2927;49.366;8.530;2022-11-15T03:20:24;9.50;99.90
5802;DHT22;2927;49.366;8.530;2022-11-15T03:22:51;9.50;99.90
5802;DHT22;2927;49.366;8.530;2022-11-15T03:25:22;9.50;99.90
5802;DHT22;2927;49.366;8.530;2022-11-15T03:27:51;9.50;99.90
5802;DHT22;2927;49.366;8.530;2022-11-15T03:30:18;9.50;99.90
5802;DHT22;2927;49.366;8.530;2022-11-15T03:32:51;9.50;99.90
5802;DHT22;2927;49.366;8.530;2022-11-15T03:35:24;9.50;99.90
5802;DHT22;2927;49.366;8.530;2022-11-15T03:40:54;9.50;99.90
5802;DHT22;2927;49.366;8.530;2022-11-15T03:46:03;9.50;99.90
5802;DHT22;2927;49.366;8.530;2022-11-15T03:48:35;9.50;99.90
5802;DHT22;2927;49.366;8.530;2022-11-15T03:51:04;9.50;99.90
5802;DHT22;2927;49.366;8.530;2022-11-15T03:53:29;9.60;99.90
5802;DHT22;2927;49.366;8.530;2022-11-15T03:55:57;9.60;99.90
5802;DHT22;2927;49.366;8.530;2022-11-15T03:58:22;9.50;99.90
5802;DHT22;2927;49.366;8.530;2022-11-15T04:00:48;9.60;99.90
5802;DHT22;2927;49.366;8.530;2022-11-15T04:03:13;9.60;99.90
5802;DHT22;2927;49.366;8.530;2022-11-15T04:05:39;9.60;99.90
5802;DHT22;2927;49.366;8.530;2022-11-15T04:08:04;9.60;99.90
5802;DHT22;2927;49.366;8.530;2022-11-15T04:10:30;9.60;99.90
5802;DHT22;2927;49.366;8.530;2022-11-15T04:12:55;9.60;99.90
5802;DHT22;2927;49.366;8.530;2022-11-15T04:15:22;9.60;99.90
5802;DHT22;2927;49.366;8.530;2022-11-15T04:17:55;9.60;99.90
5802;DHT22;2927;49.366;8.530;2022-11-15T04:20:23;9.60;99.90
5802;DHT22;2927;49.366;8.530;2022-11-15T04:23:11;9.70;99.90
5802;DHT22;2927;49.366;8.530;2022-11-15T04:25:56;9.70;99.90
5802;DHT22;2927;49.366;8.530;2022-11-15T04:28:23;9.70;99.90
5802;DHT22;2927;49.366;8.530;2022-11-15T04:30:49;9.70;99.90
5802;DHT22;2927;49.366;8.530;2022-11-15T04:33:14;9.70;99.90
5802;DHT22;2927;49.366;8.530;2022-11-15T04:35:41;9.70;99.90
5802;DHT22;2927;49.366;8.530;2022-11-15T04:38:08;9.70;99.90
5802;DHT22;2927;49.366;8.530;2022-11-15T04:40:35;9.70;99.90
5802;DHT22;2927;49.366;8.530;2022-11-15T04:43:00;9.70;99.90
5802;DHT22;2927;49.366;8.530;2022-11-15T04:45:26;9.70;99.90
5802;DHT22;2927;49.366;8.530;2022-11-15T04:47:51;9.70;99.90
5802;DHT22;2927;49.366;8.530;2022-11-15T04:50:17;9.70;99.90
5802;DHT22;2927;49.366;8.530;2022-11-15T04:52:50;9.80;99.90
5802;DHT22;2927;49.366;8.530;2022-11-15T04:55:16;9.80;99.90
5802;DHT22;2927;49.366;8.530;2022-11-15T04:57:42;9.80;99.90
5802;DHT22;2927;49.366;8.530;2022-11-15T05:00:10;9.80;99.90
5802;DHT22;2927;49.366;8.530;2022-11-15T05:02:36;9.80;99.90
5802;DHT22;2927;49.366;8.530;2022-11-15T05:05:20;9.80;99.90
5802;DHT22;2927;49.366;8.530;2022-11-15T05:07:45;9.70;99.90
5802;DHT22;2927;49.366;8.530;2022-11-15T05:10:11;9.70;99.90
5802;DHT22;2927;49.366;8.530;2022-11-15T05:12:37;9.70;99.90
5802;DHT22;2927;49.366;8.530;2022-11-15T05:15:03;9.70;99.90
5802;DHT22;2927;49.366;8.530;2022-11-15T05:17:29;9.70;99.90
5802;DHT22;2927;49.366;8.530;2022-11-15T05:19:54;9.60;99.90
5802;DHT22;2927;49.366;8.530;2022-11-15T05:22:20;9.70;99.90
5802;DHT22;2927;49.366;8.530;2022-11-15T05:24:46;9.70;99.90
5802;DHT22;2927;49.366;8.530;2022-11-15T05:27:11;9.70;99.90
5802;DHT22;2927;49.366;8.530;2022-11-15T05:29:37;9.70;99.90
5802;DHT22;2927;49.366;8.530;2022-11-15T05:32:05;9.70;99.90
5802;DHT22;2927;49.366;8.530;2022-11-15T05:34:31;9.70;99.90
5802;DHT22;2927;49.366;8.530;2022-11-15T05:36:57;9.70;99.90
5802;DHT22;2927;49.366;8.530;2022-11-15T05:39:24;9.70;99.90
5802;DHT22;2927;49.366;8.530;2022-11-15T05:41:54;9.70;99.90
5802;DHT22;2927;49.366;8.530;2022-11-15T05:44:23;9.60;99.90
5802;DHT22;2927;49.366;8.530;2022-11-15T05:46:51;9.60;99.90
5802;DHT22;2927;49.366;8.530;2022-11-15T05:49:21;9.60;99.90
5802;DHT22;2927;49.366;8.530;2022-11-15T05:51:48;9.50;99.90
5802;DHT22;2927;49.366;8.530;2022-11-15T05:54:16;9.60;99.90
5802;DHT22;2927;49.366;8.530;2022-11-15T05:56:41;9.60;99.90
5802;DHT22;2927;49.366;8.530;2022-11-15T05:59:08;9.60;99.90
5802;DHT22;2927;49.366;8.530;2022-11-15T06:01:34;9.70;99.90
5802;DHT22;2927;49.366;8.530;2022-11-15T06:04:00;9.70;99.90
5802;DHT22;2927;49.366;8.530;2022-11-15T06:06:28;9.70;99.90
5802;DHT22;2927;49.366;8.530;2022-11-15T06:08:53;9.70;99.90
5802;DHT22;2927;49.366;8.530;2022-11-15T06:11:19;9.60;99.90
5802;DHT22;2927;49.366;8.530;2022-11-15T06:13:44;9.70;99.90
5802;DHT22;2927;49.366;8.530;2022-11-15T06:16:10;9.80;99.90
5802;DHT22;2927;49.366;8.530;2022-11-15T06:18:36;9.80;99.90
5802;DHT22;2927;49.366;8.530;2022-11-15T06:21:02;9.90;99.90
5802;DHT22;2927;49.366;8.530;2022-11-15T06:23:30;9.90;99.90
5802;DHT22;2927;49.366;8.530;2022-11-15T06:25:58;9.90;99.90
5802;DHT22;2927;49.366;8.530;2022-11-15T06:28:24;9.80;99.90
5802;DHT22;2927;49.366;8.530;2022-11-15T06:30:49;9.90;99.90
5802;DHT22;2927;49.366;8.530;2022-11-15T06:33:15;9.90;99.90
5802;DHT22;2927;49.366;8.530;2022-11-15T06:35:40;9.90;99.90
5802;DHT22;2927;49.366;8.530;2022-11-15T06:38:10;9.90;99.90
5802;DHT22;2927;49.366;8.530;2022-11-15T06:40:37;9.90;99.90
5802;DHT22;2927;49.366;8.530;2022-11-15T06:43:04;9.90;99.90
5802;DHT22;2927;49.366;8.530;2022-11-15T06:45:31;9.90;99.90
5802;DHT22;2927;49.366;8.530;2022-11-15T06:47:57;9.80;99.90
5802;DHT22;2927;49.366;8.530;2022-11-15T06:50:23;9.90;99.90
5802;DHT22;2927;49.366;8.530;2022-11-15T06:52:49;9.90;99.90
5802;DHT22;2927;49.366;8.530;2022-11-15T06:55:14;9.90;99.90
5802;DHT22;2927;49.366;8.530;2022-11-15T06:57:50;9.90;99.90
5802;DHT22;2927;49.366;8.530;2022-11-15T07:00:17;10.00;99.90
5802;DHT22;2927;49.366;8.530;2022-11-15T07:02:43;10.00;99.90
5802;DHT22;2927;49.366;8.530;2022-11-15T07:05:10;9.90;99.90
5802;DHT22;2927;49.366;8.530;2022-11-15T07:07:35;9.90;99.90
5802;DHT22;2927;49.366;8.530;2022-11-15T07:10:01;9.90;99.90
5802;DHT22;2927;49.366;8.530;2022-11-15T07:12:26;10.00;99.90
5802;DHT22;2927;49.366;8.530;2022-11-15T07:14:52;10.00;99.90
5802;DHT22;2927;49.366;8.530;2022-11-15T07:17:17;10.00;99.90
5802;DHT22;2927;49.366;8.530;2022-11-15T07:19:43;9.90;99.90
5802;DHT22;2927;49.366;8.530;2022-11-15T07:22:08;9.90;99.90
5802;DHT22;2927;49.366;8.530;2022-11-15T07:24:34;10.20;99.90
5802;DHT22;2927;49.366;8.530;2022-11-15T07:26:59;10.40;99.90
5802;DHT22;2927;49.366;8.530;2022-11-15T07:29:25;10.50;99.90
5802;DHT22;2927;49.366;8.530;2022-11-15T07:31:50;10.60;99.90
5802;DHT22;2927;49.366;8.530;2022-11-15T07:34:16;10.60;99.90
5802;DHT22;2927;49.366;8.530;2022-11-15T07:36:41;10.50;99.90
5802;DHT22;2927;49.366;8.530;2022-11-15T07:39:07;10.60;99.90
5802;DHT22;2927;49.366;8.530;2022-11-15T07:41:33;10.80;99.90
5802;DHT22;2927;49.366;8.530;2022-11-15T07:43:58;10.70;99.90
5802;DHT22;2927;49.366;8.530;2022-11-15T07:46:24;10.50;99.90
5802;DHT22;2927;49.366;8.530;2022-11-15T07:48:49;10.60;99.90
5802;DHT22;2927;49.366;8.530;2022-11-15T07:51:16;10.70;99.90
5802;DHT22;2927;49.366;8.530;2022-11-15T07:53:43;10.90;99.90
5802;DHT22;2927;49.366;8.530;2022-11-15T07:56:09;10.80;99.90
5802;DHT22;2927;49.366;8.530;2022-11-15T07:58:35;10.70;99.90
5802;DHT22;2927;49.366;8.530;2022-11-15T08:03:32;10.70;99.90
5802;DHT22;2927;49.366;8.530;2022-11-15T08:05:58;10.80;99.90
5802;DHT22;2927;49.366;8.530;2022-11-15T08:08:23;10.80;99.90
5802;DHT22;2927;49.366;8.530;2022-11-15T08:10:49;10.70;99.90
5802;DHT22;2927;49.366;8.530;2022-11-15T08:13:14;11.00;99.90
5802;DHT22;2927;49.366;8.530;2022-11-15T08:15:40;11.20;99.90
5802;DHT22;2927;49.366;8.530;2022-11-15T08:18:14;11.20;99.90
5802;DHT22;2927;49.366;8.530;2022-11-15T08:20:41;11.30;99.90
5802;DHT22;2927;49.366;8.530;2022-11-15T08:23:07;11.30;99.90
5802;DHT22;2927;49.366;8.530;2022-11-15T08:25:34;11.30;99.90
5802;DHT22;2927;49.366;8.530;2022-11-15T08:28:02;11.10;99.90
5802;DHT22;2927;49.366;8.530;2022-11-15T08:30:28;11.00;99.90
5802;DHT22;2927;49.366;8.530;2022-11-15T08:32:56;11.00;99.90
5802;DHT22;2927;49.366;8.530;2022-11-15T08:35:23;11.20;99.90
5802;DHT22;2927;49.366;8.530;2022-11-15T08:37:49;11.20;99.90
5802;DHT22;2927;49.366;8.530;2022-11-15T08:40:15;11.20;99.90
5802;DHT22;2927;49.366;8.530;2022-11-15T08:42:40;11.20;99.90
5802;DHT22;2927;49.366;8.530;2022-11-15T08:45:07;11.10;99.90
5802;DHT22;2927;49.366;8.530;2022-11-15T08:47:33;11.30;99.90
5802;DHT22;2927;49.366;8.530;2022-11-15T08:49:59;11.30;99.90
5802;DHT22;2927;49.366;8.530;2022-11-15T08:52:24;11.30;99.90
5802;DHT22;2927;49.366;8.530;2022-11-15T08:54:50;11.50;99.90
5802;DHT22;2927;49.366;8.530;2022-11-15T08:57:15;11.60;99.90
5802;DHT22;2927;49.366;8.530;2022-11-15T08:59:41;11.60;99.90
5802;DHT22;2927;49.366;8.530;2022-11-15T09:02:10;11.70;99.90
5802;DHT22;2927;49.366;8.530;2022-11-15T09:04:36;11.70;99.90
5802;DHT22;2927;49.366;8.530;2022-11-15T09:07:02;11.80;99.90
5802;DHT22;2927;49.366;8.530;2022-11-15T09:09:27;11.70;99.90
5802;DHT22;2927;49.366;8.530;2022-11-15T09:11:53;11.60;99.90
5802;DHT22;2927;49.366;8.530;2022-11-15T09:14:19;11.50;99.90
5802;DHT22;2927;49.366;8.530;2022-11-15T09:16:44;11.60;99.90
5802;DHT22;2927;49.366;8.530;2022-11-15T09:19:10;11.60;99.90
5802;DHT22;2927;49.366;8.530;2022-11-15T09:21:35;11.60;99.90
5802;DHT22;2927;49.366;8.530;2022-11-15T09:24:01;11.70;99.90
5802;DHT22;2927;49.366;8.530;2022-11-15T09:26:27;11.80;99.90
5802;DHT22;2927;49.366;8.530;2022-11-15T09:28:53;11.80;99.90
5802;DHT22;2927;49.366;8.530;2022-11-15T09:31:19;12.00;99.90
5802;DHT22;2927;49.366;8.530;2022-11-15T09:33:45;11.90;99.90
5802;DHT22;2927;49.366;8.530;2022-11-15T09:36:11;12.20;99.90
5802;DHT22;2927;49.366;8.530;2022-11-15T09:38:38;12.40;99.90
5802;DHT22;2927;49.366;8.530;2022-11-15T09:43:55;12.40;99.90
5802;DHT22;2927;49.366;8.530;2022-11-15T09:49:29;12.30;99.90
5802;DHT22;2927;49.366;8.530;2022-11-15T09:51:56;12.50;99.90
5802;DHT22;2927;49.366;8.530;2022-11-15T09:54:32;12.80;95.50
5802;DHT22;2927;49.366;8.530;2022-11-15T09:57:11;13.00;20.00
5802;DHT22;2927;49.366;8.530;2022-11-15T10:03:15;12.70;96.90
5802;DHT22;2927;49.366;8.530;2022-11-15T10:05:49;12.60;99.90
5802;DHT22;2927;49.366;8.530;2022-11-15T10:11:17;12.50;99.90
5802;DHT22;2927;49.366;8.530;2022-11-15T10:13:45;12.50;99.90
5802;DHT22;2927;49.366;8.530;2022-11-15T10:22:24;13.00;78.20
5802;DHT22;2927;49.366;8.530;2022-11-15T10:25:09;12.80;54.10
5802;DHT22;2927;49.366;8.530;2022-11-15T10:27:38;12.80;99.10
5802;DHT22;2927;49.366;8.530;2022-11-15T10:30:11;12.70;79.40
5802;DHT22;2927;49.366;8.530;2022-11-15T10:32:37;12.60;99.90
5802;DHT22;2927;49.366;8.530;2022-11-15T10:35:25;12.60;99.90
5802;DHT22;2927;49.366;8.530;2022-11-15T10:37:51;12.80;99.90
5802;DHT22;2927;49.366;8.530;2022-11-15T10:40:23;12.90;76.10
5802;DHT22;2927;49.366;8.530;2022-11-15T10:45:36;13.10;1.00
5802;DHT22;2927;49.366;8.530;2022-11-15T10:50:41;12.80;60.50
5802;DHT22;2927;49.366;8.530;2022-11-15T10:53:30;12.90;21.10
5802;DHT22;2927;49.366;8.530;2022-11-15T10:56:03;12.90;17.30
5802;DHT22;2927;49.366;8.530;2022-11-15T11:01:15;12.80;28.00
5802;DHT22;2927;49.366;8.530;2022-11-15T11:03:43;13.00;37.70
5802;DHT22;2927;49.366;8.530;2022-11-15T11:06:11;13.00;25.00
5802;DHT22;2927;49.366;8.530;2022-11-15T11:08:37;13.20;1.00
5802;DHT22;2927;49.366;8.530;2022-11-15T11:11:04;13.20;1.00
5802;DHT22;2927;49.366;8.530;2022-11-15T11:13:38;13.10;34.30
5802;DHT22;2927;49.366;8.530;2022-11-15T11:21:15;13.20;72.70
5802;DHT22;2927;49.366;8.530;2022-11-15T11:23:48;13.20;99.90
5802;DHT22;2927;49.366;8.530;2022-11-15T11:29:26;13.40;52.40
5802;DHT22;2927;49.366;8.530;2022-11-15T11:32:09;13.40;40.20
5802;DHT22;2927;49.366;8.530;2022-11-15T11:34:51;13.40;64.60
5802;DHT22;2927;49.366;8.530;2022-11-15T11:37:46;13.40;52.20
5802;DHT22;2927;49.366;8.530;2022-11-15T11:43:20;13.60;15.10
5802;DHT22;2927;49.366;8.530;2022-11-15T11:51:43;13.90;1.00
5802;DHT22;2927;49.366;8.530;2022-11-15T11:54:23;13.70;1.00
5802;DHT22;2927;49.366;8.530;2022-11-15T11:56:51;13.80;1.00
5802;DHT22;2927;49.366;8.530;2022-11-15T11:59:23;13.70;1.00
5802;DHT22;2927;49.366;8.530;2022-11-15T12:01:50;13.70;1.00
5802;DHT22;2927;49.366;8.530;2022-11-15T12:07:19;14.10;1.00
5802;DHT22;2927;49.366;8.530;2022-11-15T12:15:27;14.30;1.00
5802;DHT22;2927;49.366;8.530;2022-11-15T12:17:55;14.40;1.00
5802;DHT22;2927;49.366;8.530;2022-11-15T12:20:25;14.20;1.00
5802;DHT22;2927;49.366;8.530;2022-11-15T12:23:13;14.00;1.00
5802;DHT22;2927;49.366;8.530;2022-11-15T12:34:03;14.30;1.00
5802;DHT22;2927;49.366;8.530;2022-11-15T12:36:40;14.30;1.00
5802;DHT22;2927;49.366;8.530;2022-11-15T12:39:09;14.40;1.00
5802;DHT22;2927;49.366;8.530;2022-11-15T12:41:37;14.50;1.00
5802;DHT22;2927;49.366;8.530;2022-11-15T12:44:04;14.20;1.00
5802;DHT22;2927;49.366;8.530;2022-11-15T12:59:51;13.90;1.00
5802;DHT22;2927;49.366;8.530;2022-11-15T13:02:23;13.80;1.00
5802;DHT22;2927;49.366;8.530;2022-11-15T13:04:50;13.80;1.00
5802;DHT22;2927;49.366;8.530;2022-11-15T13:17:50;13.90;1.00
5802;DHT22;2927;49.366;8.530;2022-11-15T13:22:59;13.70;1.00
5802;DHT22;2927;49.366;8.530;2022-11-15T13:30:56;14.20;1.00
5802;DHT22;2927;49.366;8.530;2022-11-15T13:33:33;14.20;1.00
5802;DHT22;2927;49.366;8.530;2022-11-15T13:36:04;14.20;1.00
5802;DHT22;2927;49.366;8.530;2022-11-15T13:38:36;13.90;1.00
5802;DHT22;2927;49.366;8.530;2022-11-15T13:41:19;13.70;1.00
5802;DHT22;2927;49.366;8.530;2022-11-15T13:43:46;13.70;1.00
5802;DHT22;2927;49.366;8.530;2022-11-15T13:46:17;13.70;1.00
5802;DHT22;2927;49.366;8.530;2022-11-15T13:48:45;13.80;1.00
5802;DHT22;2927;49.366;8.530;2022-11-15T13:51:42;13.80;1.00
5802;DHT22;2927;49.366;8.530;2022-11-15T13:56:42;14.00;1.00
5802;DHT22;2927;49.366;8.530;2022-11-15T13:59:14;14.10;1.00
5802;DHT22;2927;49.366;8.530;2022-11-15T14:01:42;14.10;1.00
5802;DHT22;2927;49.366;8.530;2022-11-15T14:04:12;14.00;1.00
5802;DHT22;2927;49.366;8.530;2022-11-15T14:06:45;13.80;1.00
5802;DHT22;2927;49.366;8.530;2022-11-15T14:11:37;13.80;1.00
5802;DHT22;2927;49.366;8.530;2022-11-15T14:14:14;13.70;1.00
5802;DHT22;2927;49.366;8.530;2022-11-15T14:16:45;13.80;1.00
5802;DHT22;2927;49.366;8.530;2022-11-15T14:22:12;13.80;1.00
5802;DHT22;2927;49.366;8.530;2022-11-15T14:24:39;13.70;1.00
5802;DHT22;2927;49.366;8.530;2022-11-15T14:27:21;13.70;8.70
5802;DHT22;2927;49.366;8.530;2022-11-15T14:29:48;13.70;18.90
5802;DHT22;2927;49.366;8.530;2022-11-15T14:32:17;13.60;47.90
5802;DHT22;2927;49.366;8.530;2022-11-15T14:34:45;13.60;53.50
5802;DHT22;2927;49.366;8.530;2022-11-15T14:39:47;13.90;8.10
5802;DHT22;2927;49.366;8.530;2022-11-15T14:42:13;14.00;1.00
5802;DHT22;2927;49.366;8.530;2022-11-15T14:44:38;13.90;1.00
5802;DHT22;2927;49.366;8.530;2022-11-15T14:47:04;13.90;4.50
5802;DHT22;2927;49.366;8.530;2022-11-15T14:49:29;13.90;1.00
5802;DHT22;2927;49.366;8.530;2022-11-15T14:51:55;13.80;1.00
5802;DHT22;2927;49.366;8.530;2022-11-15T14:54:20;13.70;25.40
5802;DHT22;2927;49.366;8.530;2022-11-15T14:56:46;13.70;31.30
5802;DHT22;2927;49.366;8.530;2022-11-15T14:59:11;13.80;14.60
5802;DHT22;2927;49.366;8.530;2022-11-15T15:01:37;13.70;26.30
5802;DHT22;2927;49.366;8.530;2022-11-15T15:04:02;13.80;1.00
5802;DHT22;2927;49.366;8.530;2022-11-15T15:06:28;13.80;1.00
5802;DHT22;2927;49.366;8.530;2022-11-15T15:08:55;13.70;1.00
5802;DHT22;2927;49.366;8.530;2022-11-15T15:11:24;13.60;1.00
5802;DHT22;2927;49.366;8.530;2022-11-15T15:13:51;13.60;1.00
5802;DHT22;2927;49.366;8.530;2022-11-15T15:16:17;13.50;1.00
5802;DHT22;2927;49.366;8.530;2022-11-15T15:18:43;13.40;1.00
5802;DHT22;2927;49.366;8.530;2022-11-15T15:21:24;13.50;1.00
5802;DHT22;2927;49.366;8.530;2022-11-15T15:23:51;13.50;1.00
5802;DHT22;2927;49.366;8.530;2022-11-15T15:26:19;13.50;1.00
5802;DHT22;2927;49.366;8.530;2022-11-15T15:28:45;13.50;1.00
5802;DHT22;2927;49.366;8.530;2022-11-15T15:31:11;13.50;1.00
5802;DHT22;2927;49.366;8.530;2022-11-15T15:33:37;13.50;1.00
5802;DHT22;2927;49.366;8.530;2022-11-15T15:36:03;13.40;1.00
5802;DHT22;2927;49.366;8.530;2022-11-15T15:38:28;13.30;1.00
5802;DHT22;2927;49.366;8.530;2022-11-15T15:40:54;13.30;1.00
5802;DHT22;2927;49.366;8.530;2022-11-15T15:43:20;13.30;1.00
5802;DHT22;2927;49.366;8.530;2022-11-15T15:45:46;13.20;1.00
5802;DHT22;2927;49.366;8.530;2022-11-15T15:48:16;13.10;1.00
5802;DHT22;2927;49.366;8.530;2022-11-15T15:50:42;13.10;2.50
5802;DHT22;2927;49.366;8.530;2022-11-15T15:53:08;13.10;1.00
5802;DHT22;2927;49.366;8.530;2022-11-15T15:55:36;13.20;1.00
5802;DHT22;2927;49.366;8.530;2022-11-15T15:58:02;13.30;1.00
5802;DHT22;2927;49.366;8.530;2022-11-15T16:00:28;13.40;1.00
5802;DHT22;2927;49.366;8.530;2022-11-15T16:02:54;13.40;1.00
5802;DHT22;2927;49.366;8.530;2022-11-15T16:05:19;13.40;1.00
5802;DHT22;2927;49.366;8.530;2022-11-15T16:07:45;13.40;1.00
5802;DHT22;2927;49.366;8.530;2022-11-15T16:12:41;13.40;1.00
5802;DHT22;2927;49.366;8.530;2022-11-15T16:15:07;13.30;1.00
5802;DHT22;2927;49.366;8.530;2022-11-15T16:17:37;13.30;1.00
5802;DHT22;2927;49.366;8.530;2022-11-15T16:20:04;13.30;1.00
5802;DHT22;2927;49.366;8.530;2022-11-15T16:22:29;13.40;1.00
5802;DHT22;2927;49.366;8.530;2022-11-15T16:24:56;13.40;1.00
5802;DHT22;2927;49.366;8.530;2022-11-15T16:27:22;13.40;1.00
5802;DHT22;2927;49.366;8.530;2022-11-15T16:29:48;13.40;1.00
5802;DHT22;2927;49.366;8.530;2022-11-15T16:32:13;13.30;1.00
5802;DHT22;2927;49.366;8.530;2022-11-15T16:34:39;13.30;1.00
5802;DHT22;2927;49.366;8.530;2022-11-15T16:37:05;13.30;1.00
5802;DHT22;2927;49.366;8.530;2022-11-15T16:39:31;13.40;1.00
5802;DHT22;2927;49.366;8.530;2022-11-15T16:41:58;13.30;1.00
5802;DHT22;2927;49.366;8.530;2022-11-15T16:44:24;13.40;1.00
5802;DHT22;2927;49.366;8.530;2022-11-15T16:46:49;13.50;1.00
5802;DHT22;2927;49.366;8.530;2022-11-15T16:49:19;13.50;1.00
5802;DHT22;2927;49.366;8.530;2022-11-15T16:51:46;13.40;1.00
5802;DHT22;2927;49.366;8.530;2022-11-15T16:54:12;13.50;1.00
5802;DHT22;2927;49.366;8.530;2022-11-15T16:56:39;13.50;1.00
5802;DHT22;2927;49.366;8.530;2022-11-15T16:59:05;13.30;1.00
5802;DHT22;2927;49.366;8.530;2022-11-15T17:03:57;13.40;1.00
5802;DHT22;2927;49.366;8.530;2022-11-15T17:06:25;13.50;1.00
5802;DHT22;2927;49.366;8.530;2022-11-15T17:08:51;13.50;1.00
5802;DHT22;2927;49.366;8.530;2022-11-15T17:11:21;13.50;1.00
5802;DHT22;2927;49.366;8.530;2022-11-15T17:13:47;13.50;1.00
5802;DHT22;2927;49.366;8.530;2022-11-15T17:16:15;13.50;1.00
5802;DHT22;2927;49.366;8.530;2022-11-15T17:18:42;13.50;1.00
5802;DHT22;2927;49.366;8.530;2022-11-15T17:21:15;13.50;1.00
5802;DHT22;2927;49.366;8.530;2022-11-15T17:23:41;13.50;1.00
5802;DHT22;2927;49.366;8.530;2022-11-15T17:26:09;13.50;1.00
5802;DHT22;2927;49.366;8.530;2022-11-15T17:28:36;13.40;1.00
5802;DHT22;2927;49.366;8.530;2022-11-15T17:31:06;13.40;1.00
5802;DHT22;2927;49.366;8.530;2022-11-15T17:33:32;13.40;1.00
5802;DHT22;2927;49.366;8.530;2022-11-15T17:36:06;13.50;1.00
5802;DHT22;2927;49.366;8.530;2022-11-15T17:38:32;13.50;1.00
5802;DHT22;2927;49.366;8.530;2022-11-15T17:43:28;13.50;1.00
5802;DHT22;2927;49.366;8.530;2022-11-15T17:45:54;13.50;1.00
5802;DHT22;2927;49.366;8.530;2022-11-15T17:48:19;13.50;1.00
5802;DHT22;2927;49.366;8.530;2022-11-15T17:50:58;13.40;1.00
5802;DHT22;2927;49.366;8.530;2022-11-15T17:53:24;13.50;1.00
5802;DHT22;2927;49.366;8.530;2022-11-15T17:55:50;13.40;1.00
5802;DHT22;2927;49.366;8.530;2022-11-15T17:58:16;13.40;1.00
5802;DHT22;2927;49.366;8.530;2022-11-15T18:00:45;13.50;1.00
5802;DHT22;2927;49.366;8.530;2022-11-15T18:03:11;13.30;1.00
5802;DHT22;2927;49.366;8.530;2022-11-15T18:05:37;13.20;1.00
5802;DHT22;2927;49.366;8.530;2022-11-15T18:08:03;13.20;1.00
5802;DHT22;2927;49.366;8.530;2022-11-15T18:10:29;13.30;1.00
5802;DHT22;2927;49.366;8.530;2022-11-15T18:12:55;13.30;1.00
5802;DHT22;2927;49.366;8.530;2022-11-15T18:15:20;13.20;1.00
5802;DHT22;2927;49.366;8.530;2022-11-15T18:17:46;13.20;1.00
5802;DHT22;2927;49.366;8.530;2022-11-15T18:20:12;13.30;1.00
5802;DHT22;2927;49.366;8.530;2022-11-15T18:22:37;13.40;1.00
5802;DHT22;2927;49.366;8.530;2022-11-15T18:25:03;13.30;1.00
5802;DHT22;2927;49.366;8.530;2022-11-15T18:27:29;13.30;1.00
5802;DHT22;2927;49.366;8.530;2022-11-15T18:29:55;13.30;1.00
5802;DHT22;2927;49.366;8.530;2022-11-15T18:32:20;13.20;1.00
5802;DHT22;2927;49.366;8.530;2022-11-15T18:34:46;13.10;1.00
5802;DHT22;2927;49.366;8.530;2022-11-15T18:37:11;13.10;1.00
5802;DHT22;2927;49.366;8.530;2022-11-15T18:39:37;13.10;1.00
5802;DHT22;2927;49.366;8.530;2022-11-15T18:42:03;13.10;1.00
5802;DHT22;2927;49.366;8.530;2022-11-15T18:44:29;13.00;25.10
5802;DHT22;2927;49.366;8.530;2022-11-15T18:46:55;12.90;37.30